Time;durP1;ratioP1;P1;durP2;ratioP2;P2;SDS_P1;SDS_P2;PMS_P1;PMS_P2;Temp;Humidity;BMP_temperature;BMP_pressure;BME280_temperature;BME280_humidity;BME280_pressure;Samples;Min_cycle;Max_cycle;Signal;HPM_P1;HPM_P2
2023/05/29 00:02:14;;;;;;;8.45;4.55;;;;;;;13.44;78.67;99598.44;5097580;28;20048;-62
2023/05/29 00:04:41;;;;;;;16.45;5.75;;;;;;;13.30;79.10;99602.59;5101315;28;20044;-63
2023/05/29 00:07:08;;;;;;;8.27;4.30;;;;;;;13.27;79.84;99595.00;5101861;28;20078;-63
2023/05/29 00:09:35;;;;;;;9.55;4.50;;;;;;;13.20;80.10;99595.16;5102395;28;20044;-63
2023/05/29 00:12:02;;;;;;;11.27;4.50;;;;;;;13.16;79.18;99597.56;5100452;28;20495;-62
2023/05/29 00:14:31;;;;;;;7.55;4.50;;;;;;;13.13;80.65;99598.06;5098258;28;20470;-62
2023/05/29 00:16:58;;;;;;;10.57;5.03;;;;;;;13.13;81.41;99598.06;5099154;28;20047;-63
2023/05/29 00:19:25;;;;;;;8.10;4.30;;;;;;;12.91;79.47;99606.09;5093615;28;20131;-62
2023/05/29 00:21:52;;;;;;;9.95;4.05;;;;;;;12.85;78.97;99608.97;5105108;28;20046;-62
2023/05/29 00:24:20;;;;;;;9.45;4.20;;;;;;;12.72;79.23;99605.56;5104539;28;20043;-63
2023/05/29 00:26:47;;;;;;;9.10;4.40;;;;;;;12.85;78.71;99606.28;5101875;28;20036;-62
2023/05/29 00:29:15;;;;;;;9.18;4.32;;;;;;;12.90;78.15;99609.88;5101156;28;20047;-63
2023/05/29 00:31:43;;;;;;;11.65;4.63;;;;;;;12.77;79.30;99610.22;5090020;28;20032;-63
2023/05/29 00:34:10;;;;;;;13.32;6.20;;;;;;;12.45;83.13;99612.69;5095013;28;20044;-63
2023/05/29 00:36:37;;;;;;;12.73;5.45;;;;;;;12.33;83.87;99609.25;5088104;28;20114;-63
2023/05/29 00:39:05;;;;;;;10.52;4.40;;;;;;;12.64;80.96;99607.88;5103125;28;20166;-63
2023/05/29 00:41:32;;;;;;;9.70;4.50;;;;;;;12.85;79.54;99600.91;5099131;28;20335;-63
2023/05/29 00:43:59;;;;;;;7.50;4.60;;;;;;;12.92;78.89;99605.03;5098661;28;20043;-62
2023/05/29 00:46:26;;;;;;;12.85;4.72;;;;;;;12.94;78.88;99596.72;5091484;28;20536;-65
2023/05/29 00:48:54;;;;;;;9.68;4.57;;;;;;;12.89;78.94;99604.72;5083598;28;20082;-63
2023/05/29 00:51:21;;;;;;;11.25;4.88;;;;;;;12.85;79.54;99606.28;5088851;28;20445;-63
2023/05/29 00:53:49;;;;;;;8.80;5.45;;;;;;;12.65;81.54;99612.19;5099784;28;20589;-62
2023/05/29 00:56:16;;;;;;;11.80;5.75;;;;;;;12.34;83.07;99622.47;5102845;28;20523;-62
2023/05/29 00:58:43;;;;;;;10.93;5.18;;;;;;;12.21;84.20;99626.28;5077328;28;20523;-62
2023/05/29 01:01:11;;;;;;;12.00;5.40;;;;;;;12.20;83.96;99613.91;5105875;28;20048;-63
2023/05/29 01:03:38;;;;;;;10.05;4.55;;;;;;;12.28;84.15;99621.59;5093826;28;20052;-63
2023/05/29 01:06:07;;;;;;;10.68;4.80;;;;;;;12.11;84.62;99618.06;5108734;28;20059;-62
2023/05/29 01:08:34;;;;;;;7.72;4.38;;;;;;;12.25;82.48;99621.25;5104524;28;20558;-62
2023/05/29 01:11:04;;;;;;;10.18;4.68;;;;;;;12.26;83.25;99620.19;5097390;28;20055;-62
2023/05/29 01:13:31;;;;;;;10.27;4.43;;;;;;;12.31;82.63;99620.28;5098460;28;20055;-64
2023/05/29 01:16:01;;;;;;;9.98;5.10;;;;;;;12.13;83.87;99626.72;5100758;28;20043;-63
2023/05/29 01:18:36;;;;;;;9.77;5.15;;;;;;;12.15;84.81;99627.25;5096493;28;20044;-63
2023/05/29 01:21:08;;;;;;;8.98;4.43;;;;;;;12.21;83.52;99629.00;5085997;28;20056;-63
2023/05/29 01:24:02;;;;;;;8.20;4.47;;;;;;;12.27;83.97;99630.69;5082401;28;20050;-64
2023/05/29 01:26:46;;;;;;;9.70;5.15;;;;;;;12.23;83.38;99634.09;5095020;28;20127;-63
2023/05/29 01:29:15;;;;;;;12.35;4.70;;;;;;;12.17;83.97;99630.53;5095190;28;20089;-63
2023/05/29 01:31:42;;;;;;;11.55;4.78;;;;;;;12.40;82.78;99621.47;5095808;28;20036;-63
2023/05/29 01:34:09;;;;;;;13.00;4.60;;;;;;;12.59;81.04;99621.25;5086762;28;20657;-63
2023/05/29 01:36:36;;;;;;;10.00;4.57;;;;;;;12.70;80.23;99623.00;5082496;28;20052;-63
2023/05/29 01:39:04;;;;;;;8.15;4.85;;;;;;;12.92;78.84;99625.75;5093735;28;20071;-63
2023/05/29 01:41:32;;;;;;;9.02;4.65;;;;;;;12.73;79.98;99628.72;5077908;28;20064;-63
2023/05/29 01:44:01;;;;;;;10.35;5.32;;;;;;;12.35;82.24;99620.59;5102243;28;20270;-64
2023/05/29 01:46:28;;;;;;;9.15;4.93;;;;;;;12.47;81.55;99624.00;5087192;28;20134;-63
2023/05/29 01:48:55;;;;;;;7.97;4.47;;;;;;;12.62;80.84;99626.94;5077355;28;20044;-63
2023/05/29 01:51:23;;;;;;;8.48;4.57;;;;;;;12.62;81.71;99626.13;5081832;28;20035;-63
2023/05/29 01:53:50;;;;;;;9.80;4.75;;;;;;;12.28;82.29;99624.28;5088296;28;20093;-64
2023/05/29 01:56:17;;;;;;;10.77;4.20;;;;;;;12.29;82.94;99622.38;5097231;28;20040;-64
2023/05/29 01:58:44;;;;;;;11.38;5.30;;;;;;;12.41;82.99;99631.19;5077750;28;20139;-64
2023/05/29 02:01:13;;;;;;;11.25;5.13;;;;;;;12.45;82.95;99620.75;5082880;28;20096;-64
2023/05/29 02:03:39;;;;;;;12.15;4.97;;;;;;;12.37;83.55;99619.28;5100172;28;20070;-64
2023/05/29 02:06:07;;;;;;;11.35;4.50;;;;;;;12.29;83.89;99623.19;5103868;28;20139;-63
2023/05/29 02:08:34;;;;;;;11.50;4.78;;;;;;;12.19;84.94;99620.34;5096249;28;20452;-63
2023/05/29 02:11:01;;;;;;;12.48;5.38;;;;;;;12.22;85.41;99617.16;5104715;28;20070;-63
2023/05/29 02:13:28;;;;;;;11.52;5.00;;;;;;;12.22;86.04;99617.16;5081034;28;20032;-64
2023/05/29 02:15:55;;;;;;;9.85;5.00;;;;;;;12.33;85.22;99614.63;5094943;28;20127;-64
2023/05/29 02:18:25;;;;;;;11.45;4.95;;;;;;;12.20;85.74;99608.53;5083446;28;20125;-63
2023/05/29 02:20:52;;;;;;;12.70;5.40;;;;;;;12.04;87.33;99615.53;5081673;28;20594;-63
2023/05/29 02:23:22;;;;;;;13.65;5.43;;;;;;;12.01;87.82;99617.91;5096206;28;20087;-63
2023/05/29 02:25:51;;;;;;;13.85;5.50;;;;;;;12.02;88.54;99622.19;5095712;28;20398;-64
2023/05/29 02:28:18;;;;;;;15.07;5.47;;;;;;;12.07;88.31;99614.22;5105229;28;20067;-63
2023/05/29 02:30:45;;;;;;;13.77;5.63;;;;;;;12.11;88.49;99628.81;5099720;28;20047;-63
2023/05/29 02:33:12;;;;;;;13.88;5.97;;;;;;;12.18;89.06;99629.47;5094480;28;20040;-63
2023/05/29 02:35:41;;;;;;;18.35;5.60;;;;;;;12.14;88.74;99641.75;5101642;28;20050;-63
2023/05/29 02:38:08;;;;;;;14.90;5.32;;;;;;;12.09;89.64;99628.25;5079747;28;20397;-64
2023/05/29 02:40:35;;;;;;;15.10;6.07;;;;;;;12.05;90.00;99627.09;5096397;28;20075;-64
2023/05/29 02:43:02;;;;;;;13.48;6.40;;;;;;;12.01;90.65;99629.44;5081646;28;20221;-63
2023/05/29 02:45:29;;;;;;;14.68;6.45;;;;;;;11.98;91.59;99629.09;5102024;28;20069;-63
2023/05/29 02:47:56;;;;;;;13.18;5.72;;;;;;;11.99;91.77;99625.38;5100039;28;20031;-63
2023/05/29 02:50:23;;;;;;;13.32;6.03;;;;;;;11.97;91.83;99630.97;5103941;28;20535;-64
2023/05/29 02:52:51;;;;;;;15.07;7.50;;;;;;;11.91;92.72;99636.53;5082285;28;20080;-63
2023/05/29 02:55:18;;;;;;;16.45;6.60;;;;;;;11.90;93.54;99640.25;5099262;28;20127;-64
2023/05/29 02:57:48;;;;;;;12.68;6.47;;;;;;;11.89;94.38;99635.94;5103238;28;20035;-63
2023/05/29 03:00:15;;;;;;;17.30;6.95;;;;;;;11.91;94.37;99645.38;5102876;28;20109;-65
2023/05/29 03:02:42;;;;;;;17.42;6.43;;;;;;;11.85;94.67;99651.69;5101205;28;20052;-64
2023/05/29 03:05:10;;;;;;;15.30;6.65;;;;;;;11.78;95.34;99648.31;5087111;28;20131;-64
2023/05/29 03:07:37;;;;;;;19.00;7.03;;;;;;;11.70;96.21;99649.50;5080074;28;20093;-65
2023/05/29 03:10:07;;;;;;;12.50;6.55;;;;;;;11.79;96.17;99650.78;5095420;28;20104;-64
2023/05/29 03:12:34;;;;;;;15.93;7.05;;;;;;;11.59;97.51;99647.69;5080261;28;20046;-63
2023/05/29 03:15:01;;;;;;;15.77;7.07;;;;;;;11.54;98.51;99655.66;5093726;28;20490;-63
2023/05/29 03:17:29;;;;;;;18.10;6.38;;;;;;;11.54;98.47;99661.03;5075417;28;20048;-64
2023/05/29 03:19:58;;;;;;;13.48;6.93;;;;;;;11.53;99.54;99656.69;5077741;28;20493;-63
2023/05/29 03:22:25;;;;;;;15.80;7.13;;;;;;;11.56;100.00;99664.28;5102679;28;20047;-63
2023/05/29 03:24:52;;;;;;;24.88;7.47;;;;;;;11.58;100.00;99664.84;5082250;28;20036;-63
2023/05/29 03:27:21;;;;;;;14.63;6.68;;;;;;;11.57;100.00;99660.53;5075890;28;20134;-63
2023/05/29 03:29:58;;;;;;;19.27;6.72;;;;;;;11.64;100.00;99662.03;5070033;28;20131;-63
2023/05/29 03:32:25;;;;;;;19.10;7.70;;;;;;;11.59;100.00;99661.13;5076542;28;20049;-63
2023/05/29 03:34:52;;;;;;;15.07;6.30;;;;;;;11.68;100.00;99673.09;5082822;28;20035;-63
2023/05/29 03:37:19;;;;;;;17.20;7.00;;;;;;;11.67;100.00;99668.78;5083126;28;20044;-63
2023/05/29 03:39:47;;;;;;;17.50;6.40;;;;;;;11.95;100.00;99673.38;5085277;28;20040;-63
2023/05/29 03:42:14;;;;;;;15.73;6.97;;;;;;;12.00;99.84;99672.66;5082730;28;20497;-64
2023/05/29 03:44:43;;;;;;;15.48;7.47;;;;;;;12.11;98.63;99674.50;5082475;28;20071;-64
2023/05/29 03:47:12;;;;;;;12.75;6.43;;;;;;;12.20;97.83;99667.66;5075482;28;20043;-63
2023/05/29 03:49:39;;;;;;;17.30;6.13;;;;;;;12.69;94.86;99681.38;5084938;28;20560;-63
2023/05/29 03:52:06;;;;;;;19.15;7.03;;;;;;;12.72;93.89;99675.50;5102659;28;20067;-64
2023/05/29 03:54:33;;;;;;;13.48;5.70;;;;;;;12.95;92.86;99679.91;5098613;28;20048;-64
2023/05/29 03:57:02;;;;;;;16.02;6.00;;;;;;;13.28;90.20;99682.75;5081783;28;20486;-63
2023/05/29 03:59:29;;;;;;;15.40;6.32;;;;;;;13.34;89.49;99684.47;5079868;28;20121;-63
2023/05/29 04:01:59;;;;;;;12.82;5.50;;;;;;;13.83;86.36;99695.31;5083826;28;20063;-63
2023/05/29 04:04:26;;;;;;;21.02;5.78;;;;;;;13.83;85.72;99695.31;5073233;28;20044;-63
2023/05/29 04:06:54;;;;;;;12.52;5.78;;;;;;;13.74;86.47;99696.81;5076166;28;20517;-66
2023/05/29 04:09:21;;;;;;;14.20;5.95;;;;;;;14.44;82.47;99706.69;5077473;28;20043;-64
2023/05/29 04:11:48;;;;;;;11.32;5.80;;;;;;;14.15;83.84;99710.72;5096812;28;21320;-63
2023/05/29 04:14:15;;;;;;;10.77;5.60;;;;;;;14.06;84.05;99710.38;5085482;28;20040;-63
2023/05/29 04:16:42;;;;;;;12.98;5.57;;;;;;;14.48;84.17;99722.34;5094753;28;20510;-63
2023/05/29 04:19:11;;;;;;;12.80;5.30;;;;;;;15.64;77.54;99721.56;5074888;28;20050;-64
2023/05/29 04:21:38;;;;;;;14.95;5.70;;;;;;;15.69;75.91;99721.59;5065588;28;20139;-63
2023/05/29 04:24:06;;;;;;;14.93;5.45;;;;;;;15.99;74.29;99722.00;5076615;28;20050;-63
2023/05/29 04:26:33;;;;;;;11.65;5.32;;;;;;;15.96;73.61;99723.34;5080848;28;20099;-63
2023/05/29 04:29:00;;;;;;;12.88;5.65;;;;;;;16.67;71.00;99730.75;5078804;28;20520;-62
2023/05/29 04:31:27;;;;;;;13.70;4.93;;;;;;;16.49;71.32;99732.09;5080690;28;20430;-62
2023/05/29 04:33:55;;;;;;;13.90;5.03;;;;;;;16.05;73.47;99732.56;5084345;28;20044;-62
2023/05/29 04:36:25;;;;;;;12.90;5.00;;;;;;;16.15;73.04;99738.00;5082206;28;20082;-62
2023/05/29 04:38:58;;;;;;;15.65;5.50;;;;;;;16.24;72.22;99743.69;5081019;28;20040;-62
2023/05/29 04:41:29;;;;;;;12.93;5.07;;;;;;;16.23;72.81;99743.97;5078700;28;20395;-62
2023/05/29 04:43:56;;;;;;;14.10;5.15;;;;;;;16.92;69.83;99746.19;5084967;28;20035;-62
2023/05/29 04:46:25;;;;;;;8.70;4.93;;;;;;;16.69;69.59;99754.84;5081976;28;20155;-62
2023/05/29 04:48:53;;;;;;;21.95;5.40;;;;;;;16.61;70.70;99754.28;5085055;28;20432;-62
2023/05/29 04:51:21;;;;;;;10.60;4.78;;;;;;;17.44;67.14;99750.44;5087508;28;20331;-62
2023/05/29 04:53:51;;;;;;;13.50;4.78;;;;;;;18.10;63.91;99751.34;5079080;28;20048;-62
2023/05/29 04:56:18;;;;;;;10.65;5.43;;;;;;;17.55;66.28;99755.88;5098190;28;20046;-62
2023/05/29 04:58:48;;;;;;;15.95;5.10;;;;;;;17.13;66.81;99754.31;5084524;28;20474;-62
2023/05/29 05:01:15;;;;;;;11.50;5.05;;;;;;;17.55;66.09;99766.72;5085910;28;20138;-61
2023/05/29 05:03:42;;;;;;;14.45;5.07;;;;;;;17.72;64.65;99764.47;5081541;28;22329;-62
2023/05/29 05:06:09;;;;;;;18.20;4.85;;;;;;;18.90;60.39;99769.28;5095812;28;20123;-62
2023/05/29 05:08:37;;;;;;;12.82;4.90;;;;;;;19.25;58.77;99770.06;5081314;28;20100;-62
2023/05/29 05:11:06;;;;;;;13.57;4.85;;;;;;;18.07;62.79;99779.00;5078580;28;20048;-63
2023/05/29 05:13:34;;;;;;;10.60;4.72;;;;;;;19.83;56.82;99778.16;5095228;28;20070;-62
2023/05/29 05:16:01;;;;;;;8.98;4.60;;;;;;;18.32;61.75;99787.03;5079866;28;20051;-64
2023/05/29 05:18:30;;;;;;;12.98;5.30;;;;;;;17.96;63.31;99782.84;5082443;28;20036;-63
2023/05/29 05:21:04;;;;;;;15.43;5.30;;;;;;;18.93;60.15;99779.56;5079983;28;20112;-63
2023/05/29 05:23:33;;;;;;;13.02;4.80;;;;;;;19.39;57.93;99777.25;5079062;28;20072;-64
2023/05/29 05:26:00;;;;;;;8.23;4.43;;;;;;;20.83;53.46;99780.88;5078648;28;20044;-63
2023/05/29 05:28:28;;;;;;;9.10;4.68;;;;;;;20.19;55.70;99788.56;5079240;28;20045;-63
2023/05/29 05:30:55;;;;;;;8.85;4.43;;;;;;;20.53;53.96;99782.94;5071117;28;20062;-64
2023/05/29 05:33:23;;;;;;;10.27;4.47;;;;;;;20.59;53.10;99786.41;5081494;28;20040;-63
2023/05/29 05:35:50;;;;;;;10.23;4.25;;;;;;;21.32;51.98;99785.75;5084005;28;20056;-64
2023/05/29 05:38:17;;;;;;;15.25;4.80;;;;;;;21.38;51.13;99785.66;5077074;28;20116;-63
2023/05/29 05:40:45;;;;;;;10.65;4.53;;;;;;;22.20;49.34;99797.75;5067350;28;20068;-63
2023/05/29 05:43:17;;;;;;;12.13;4.85;;;;;;;22.42;49.01;99797.00;5074090;28;20044;-64
2023/05/29 05:46:12;;;;;;;9.65;5.00;;;;;;;20.87;52.72;99788.16;5067309;28;20044;-63
2023/05/29 05:48:40;;;;;;;10.32;4.72;;;;;;;20.73;52.42;99792.72;5076727;28;20487;-63
2023/05/29 05:51:07;;;;;;;11.40;4.50;;;;;;;20.65;52.81;99790.69;5075088;28;20048;-62
2023/05/29 05:53:35;;;;;;;11.07;4.82;;;;;;;20.15;54.41;99782.13;5075837;28;20050;-64
2023/05/29 05:56:02;;;;;;;7.15;4.40;;;;;;;21.71;50.13;99781.75;5073455;28;20121;-61
2023/05/29 05:58:29;;;;;;;14.43;4.80;;;;;;;22.09;49.49;99787.03;5077707;28;20044;-61
2023/05/29 06:00:58;;;;;;;9.40;4.55;;;;;;;21.56;49.61;99792.97;5076023;28;20051;-61
2023/05/29 06:03:28;;;;;;;11.20;4.75;;;;;;;21.27;50.89;99785.84;5089559;28;20120;-61
2023/05/29 06:06:08;;;;;;;8.10;4.32;;;;;;;22.22;48.37;99801.78;5081218;28;20048;-61
2023/05/29 06:08:36;;;;;;;9.37;4.97;;;;;;;19.79;54.75;99801.56;5076528;28;20076;-62
2023/05/29 06:11:03;;;;;;;9.90;4.88;;;;;;;20.31;54.07;99791.66;5098529;28;20043;-61
2023/05/29 06:13:31;;;;;;;9.63;4.70;;;;;;;20.01;53.50;99793.69;5086248;28;20062;-64
2023/05/29 06:16:05;;;;;;;10.00;4.78;;;;;;;21.01;51.52;99795.56;5080247;28;20042;-63
2023/05/29 06:18:34;;;;;;;13.32;4.82;;;;;;;20.94;50.69;99792.41;5097964;28;20451;-64
2023/05/29 06:21:02;;;;;;;9.07;4.57;;;;;;;21.16;50.84;99806.19;5081938;28;20050;-61
2023/05/29 06:23:30;;;;;;;9.43;4.75;;;;;;;21.76;49.84;99800.75;5082696;28;20055;-61
2023/05/29 06:25:57;;;;;;;7.47;4.38;;;;;;;20.99;50.43;99800.50;5080144;28;20221;-64
2023/05/29 06:28:24;;;;;;;11.25;4.95;;;;;;;20.84;51.54;99810.56;5076508;28;20044;-62
2023/05/29 06:30:52;;;;;;;9.25;5.07;;;;;;;20.31;53.01;99812.66;5082014;28;20040;-61
2023/05/29 06:33:21;;;;;;;9.13;4.68;;;;;;;20.74;51.63;99816.13;5080306;28;20703;-62
2023/05/29 06:35:53;;;;;;;11.95;4.85;;;;;;;20.54;53.34;99813.69;5086744;28;20039;-62
2023/05/29 06:38:20;;;;;;;9.45;4.90;;;;;;;22.94;47.34;99817.34;5082456;28;20048;-62
2023/05/29 06:40:47;;;;;;;9.55;4.65;;;;;;;21.57;48.90;99816.44;5104375;27;20126;-62
2023/05/29 06:43:14;;;;;;;11.02;4.68;;;;;;;24.03;44.79;99829.88;5090253;28;20071;-62
2023/05/29 06:45:47;;;;;;;8.25;4.50;;;;;;;23.11;45.10;99824.06;5079260;28;20048;-62
2023/05/29 06:48:14;;;;;;;15.50;4.70;;;;;;;23.30;45.90;99834.81;5094927;28;20047;-63
2023/05/29 06:50:43;;;;;;;11.93;4.60;;;;;;;22.78;46.76;99832.50;5083565;28;20044;-62
2023/05/29 06:53:37;;;;;;;8.30;4.40;;;;;;;23.54;45.68;99837.19;5091523;28;20052;-62
2023/05/29 06:56:04;;;;;;;9.52;4.50;;;;;;;24.06;44.97;99837.44;5081128;28;20040;-62
2023/05/29 06:58:32;;;;;;;10.57;4.40;;;;;;;20.80;50.93;99831.31;5081846;28;20043;-62
2023/05/29 07:00:59;;;;;;;10.82;5.10;;;;;;;20.61;51.89;99844.13;5079020;28;20071;-62
2023/05/29 07:03:31;;;;;;;13.55;4.85;;;;;;;22.00;49.10;99840.69;5082069;28;20070;-62
2023/05/29 07:05:58;;;;;;;14.75;4.75;;;;;;;22.53;47.58;99837.41;5077363;28;20051;-62
2023/05/29 07:08:26;;;;;;;12.60;5.20;;;;;;;20.94;50.78;99836.00;5082389;28;20040;-62
2023/05/29 07:10:55;;;;;;;8.93;4.60;;;;;;;22.61;47.66;99844.91;5080844;28;20044;-62
2023/05/29 07:13:22;;;;;;;10.97;4.50;;;;;;;24.69;44.23;99832.59;5090969;28;20051;-63
2023/05/29 07:15:49;;;;;;;11.65;4.57;;;;;;;24.60;43.42;99831.78;5077107;28;20509;-62
2023/05/29 07:18:16;;;;;;;8.48;4.28;;;;;;;24.87;42.89;99834.19;5075179;28;20504;-62
2023/05/29 07:20:44;;;;;;;9.43;4.70;;;;;;;24.18;42.94;99828.63;5080735;28;20047;-62
2023/05/29 07:23:14;;;;;;;10.85;4.60;;;;;;;23.16;46.19;99834.88;5081020;28;20177;-62
2023/05/29 07:25:41;;;;;;;11.23;4.80;;;;;;;23.75;45.30;99832.84;5082738;28;20043;-63
2023/05/29 07:28:11;;;;;;;12.40;4.50;;;;;;;23.85;44.76;99837.22;5072809;28;20052;-63
2023/05/29 07:30:38;;;;;;;10.03;4.70;;;;;;;22.14;48.02;99838.78;5100763;28;20126;-61
2023/05/29 07:33:06;;;;;;;8.85;4.40;;;;;;;23.03;46.92;99833.84;5077028;28;20426;-61
2023/05/29 07:35:33;;;;;;;9.70;4.63;;;;;;;23.54;45.50;99840.75;5076444;28;20083;-64
2023/05/29 07:38:02;;;;;;;12.50;4.72;;;;;;;23.74;45.61;99836.72;5077627;28;20040;-63
2023/05/29 07:40:29;;;;;;;10.40;4.68;;;;;;;24.54;43.78;99834.69;5082565;28;20054;-61
2023/05/29 07:43:27;;;;;;;11.77;5.00;;;;;;;24.42;43.76;99847.38;5077066;28;20429;-63
2023/05/29 07:45:59;;;;;;;12.82;4.85;;;;;;;23.18;46.24;99840.84;5081331;28;20036;-63
2023/05/29 07:48:30;;;;;;;9.90;5.00;;;;;;;24.26;43.80;99842.34;5079330;28;20650;-63
2023/05/29 07:50:58;;;;;;;11.75;4.45;;;;;;;25.64;41.45;99845.38;5076093;28;20039;-63
2023/05/29 07:53:27;;;;;;;8.60;4.40;;;;;;;25.71;41.36;99836.63;5072228;28;20052;-63
2023/05/29 07:55:57;;;;;;;12.77;4.85;;;;;;;23.74;45.07;99842.19;5081793;28;20047;-63
2023/05/29 07:58:24;;;;;;;11.27;4.65;;;;;;;24.13;44.58;99839.72;5084113;28;20548;-63
2023/05/29 08:00:53;;;;;;;10.30;5.05;;;;;;;23.93;44.53;99841.91;5086649;28;20044;-62
2023/05/29 08:03:20;;;;;;;13.53;4.73;;;;;;;23.98;45.00;99836.28;5095239;28;20127;-63
2023/05/29 08:06:07;;;;;;;14.27;5.22;;;;;;;22.21;48.37;99834.84;5102882;28;20486;-62
2023/05/29 08:08:35;;;;;;;11.40;4.85;;;;;;;23.83;45.44;99832.06;5084542;28;20482;-62
2023/05/29 08:11:02;;;;;;;13.25;4.88;;;;;;;24.28;45.05;99834.59;5089177;28;20047;-63
2023/05/29 08:13:30;;;;;;;8.70;4.53;;;;;;;23.29;46.92;99833.19;5089788;28;20493;-62
2023/05/29 08:15:59;;;;;;;13.70;5.10;;;;;;;22.32;48.66;99837.06;5086680;28;20072;-62
2023/05/29 08:18:26;;;;;;;9.88;4.55;;;;;;;23.33;46.86;99835.00;5105048;28;20029;-62
2023/05/29 08:20:53;;;;;;;12.13;5.30;;;;;;;25.13;44.54;99828.69;5097985;28;20050;-62
2023/05/29 08:23:20;;;;;;;9.75;4.72;;;;;;;24.82;43.63;99836.31;5102908;28;20360;-62
2023/05/29 08:25:48;;;;;;;9.25;4.45;;;;;;;25.39;41.66;99828.66;5097504;28;20327;-62
2023/05/29 08:28:15;;;;;;;11.00;5.30;;;;;;;24.56;43.72;99833.53;5094362;28;20436;-63
2023/05/29 08:30:42;;;;;;;10.82;4.45;;;;;;;23.39;45.37;99830.22;5105533;28;20138;-63
2023/05/29 08:33:11;;;;;;;11.18;5.10;;;;;;;24.13;44.69;99837.78;5097403;28;20071;-62
2023/05/29 08:35:38;;;;;;;12.10;4.43;;;;;;;23.65;44.97;99833.88;5098913;28;20036;-62
2023/05/29 08:38:05;;;;;;;10.80;5.20;;;;;;;22.46;47.88;99822.56;5103145;28;20494;-62
2023/05/29 08:40:32;;;;;;;12.30;5.65;;;;;;;23.25;46.55;99831.09;5095291;28;20044;-62
2023/05/29 08:43:02;;;;;;;9.93;5.00;;;;;;;24.53;44.34;99826.78;5097881;28;20539;-62
2023/05/29 08:45:29;;;;;;;12.27;5.43;;;;;;;23.77;46.35;99827.84;5093729;28;20142;-62
2023/05/29 08:47:56;;;;;;;11.63;5.03;;;;;;;23.50;46.23;99834.28;5077509;28;20360;-64
2023/05/29 08:50:25;;;;;;;14.30;5.18;;;;;;;23.59;45.39;99840.63;5095399;28;20036;-62
2023/05/29 08:52:52;;;;;;;8.82;5.03;;;;;;;22.83;46.94;99840.56;5103260;28;20081;-63
2023/05/29 08:55:19;;;;;;;10.60;5.15;;;;;;;22.98;47.03;99832.03;5098388;28;20067;-62
2023/05/29 08:57:46;;;;;;;10.48;5.22;;;;;;;24.21;45.29;99831.56;5082178;28;20709;-62
2023/05/29 09:00:15;;;;;;;11.15;5.00;;;;;;;24.54;44.96;99842.09;5098413;28;20122;-62
2023/05/29 09:02:43;;;;;;;10.20;4.65;;;;;;;26.26;41.70;99838.50;5102986;28;20047;-62
2023/05/29 09:05:12;;;;;;;15.35;5.15;;;;;;;24.65;44.13;99837.91;5099658;28;20036;-62
2023/05/29 09:07:40;;;;;;;9.95;5.50;;;;;;;22.98;47.07;99834.75;5103489;28;20048;-62
2023/05/29 09:10:08;;;;;;;9.20;5.10;;;;;;;22.91;47.29;99841.75;5094815;28;20051;-62
2023/05/29 09:12:36;;;;;;;10.82;5.32;;;;;;;23.12;47.14;99828.44;5099920;28;20044;-62
2023/05/29 09:15:04;;;;;;;15.00;5.47;;;;;;;24.21;45.34;99831.56;5098032;28;20089;-62
2023/05/29 09:17:32;;;;;;;10.50;4.95;;;;;;;23.98;46.36;99846.44;5095192;28;20139;-63
2023/05/29 09:19:59;;;;;;;10.93;5.20;;;;;;;22.52;48.19;99841.28;5097816;28;20059;-63
2023/05/29 09:22:26;;;;;;;10.52;4.75;;;;;;;23.48;47.79;99842.00;5103092;28;20050;-62
2023/05/29 09:24:54;;;;;;;11.20;4.75;;;;;;;23.86;46.47;99839.66;5098576;28;20485;-62
2023/05/29 09:27:21;;;;;;;10.38;4.97;;;;;;;24.15;45.63;99841.03;5096341;28;20109;-62
2023/05/29 09:29:48;;;;;;;12.77;5.15;;;;;;;24.41;45.95;99832.03;5099598;28;20055;-63
2023/05/29 09:32:16;;;;;;;14.23;5.00;;;;;;;24.27;46.09;99826.72;5102876;28;20134;-62
2023/05/29 09:34:43;;;;;;;13.40;5.40;;;;;;;23.72;47.08;99827.97;5081425;28;20147;-63
2023/05/29 09:37:12;;;;;;;16.33;4.88;;;;;;;24.51;45.15;99829.84;5082505;28;20072;-63
2023/05/29 09:39:48;;;;;;;11.57;5.13;;;;;;;24.41;45.37;99821.09;5101728;28;20043;-63
2023/05/29 09:42:17;;;;;;;9.00;4.70;;;;;;;23.38;47.48;99832.13;5096214;27;20063;-63
2023/05/29 09:44:46;;;;;;;11.32;5.32;;;;;;;24.85;44.82;99824.69;5100248;28;20127;-63
2023/05/29 09:47:15;;;;;;;13.32;6.47;;;;;;;24.77;44.18;99829.06;5096063;28;20092;-64
2023/05/29 09:49:43;;;;;;;10.27;6.00;;;;;;;24.04;46.16;99824.09;5101640;28;20048;-62
2023/05/29 09:52:15;;;;;;;13.02;5.65;;;;;;;23.43;46.57;99834.72;5095699;28;20112;-61
2023/05/29 09:54:45;;;;;;;14.55;6.25;;;;;;;24.20;46.59;99832.66;5101199;28;20127;-61
2023/05/29 09:57:12;;;;;;;9.73;5.47;;;;;;;24.04;45.86;99829.56;5102724;28;20036;-61
2023/05/29 09:59:43;;;;;;;12.73;5.28;;;;;;;24.55;44.79;99832.75;5095750;28;20040;-62
2023/05/29 10:02:12;;;;;;;12.60;4.82;;;;;;;24.17;45.32;99832.50;5070108;28;20139;-64
2023/05/29 10:04:39;;;;;;;12.80;5.38;;;;;;;22.86;48.84;99841.88;5095178;28;20063;-63
2023/05/29 10:07:11;;;;;;;16.13;5.18;;;;;;;23.87;46.89;99830.31;5080556;28;20069;-63
2023/05/29 10:09:39;;;;;;;13.85;5.53;;;;;;;23.86;46.88;99828.72;5078433;28;20062;-62
2023/05/29 10:12:07;;;;;;;11.93;4.93;;;;;;;23.57;47.14;99825.66;5104214;28;20596;-63
2023/05/29 10:14:34;;;;;;;14.05;6.03;;;;;;;25.05;44.20;99831.44;5098884;28;20048;-61
2023/05/29 10:17:04;;;;;;;12.23;5.32;;;;;;;23.89;46.10;99821.78;5095363;28;20036;-62
2023/05/29 10:19:32;;;;;;;13.73;5.22;;;;;;;23.72;46.79;99825.22;5097594;28;20039;-62
2023/05/29 10:21:59;;;;;;;10.30;4.75;;;;;;;24.69;45.08;99827.94;5104293;28;20517;-62
2023/05/29 10:24:26;;;;;;;13.40;5.05;;;;;;;24.52;46.05;99827.91;5081086;28;20404;-62
2023/05/29 10:26:53;;;;;;;16.70;5.43;;;;;;;24.04;46.37;99832.31;5098448;28;20115;-62
2023/05/29 10:29:24;;;;;;;14.60;5.75;;;;;;;23.77;48.19;99825.13;5083902;28;20040;-62
2023/05/29 10:31:59;;;;;;;12.15;5.47;;;;;;;23.68;47.41;99829.72;5092563;28;20099;-62
2023/05/29 10:34:31;;;;;;;14.23;6.00;;;;;;;23.71;46.80;99823.59;5103458;28;20080;-62
2023/05/29 10:37:05;;;;;;;13.82;5.35;;;;;;;23.71;47.05;99829.06;5098123;28;20562;-62
2023/05/29 10:39:33;;;;;;;11.73;5.03;;;;;;;23.90;47.73;99821.44;5093742;28;20044;-62
2023/05/29 10:42:00;;;;;;;13.73;5.22;;;;;;;22.72;48.59;99822.81;5097403;28;20052;-62
2023/05/29 10:44:42;;;;;;;15.35;5.60;;;;;;;24.14;46.16;99823.00;5102315;28;20665;-62
2023/05/29 10:47:12;;;;;;;13.95;5.32;;;;;;;23.57;47.23;99820.19;5090756;28;20528;-62
2023/05/29 10:49:40;;;;;;;;;;;;;;;24.37;45.42;99831.09;5093703;28;20474;-62
2023/05/29 10:52:07;;;;;;;14.63;5.00;;;;;;;24.03;45.66;99821.66;5095213;28;19930;-62
2023/05/29 10:54:54;;;;;;;10.88;4.90;;;;;;;24.14;46.05;99833.94;5096185;28;20052;-62
2023/05/29 10:57:24;;;;;;;10.38;5.15;;;;;;;24.07;45.93;99830.84;5099082;28;20040;-62
2023/05/29 11:00:12;;;;;;;11.70;5.28;;;;;;;23.68;47.41;99826.97;5089729;28;20040;-62
2023/05/29 11:02:40;;;;;;;12.45;5.28;;;;;;;23.98;45.90;99819.06;5092100;28;20036;-62
2023/05/29 11:05:24;;;;;;;15.40;5.00;;;;;;;24.33;45.69;99818.00;5097200;28;20036;-63
2023/05/29 11:07:53;;;;;;;16.23;5.03;;;;;;;23.00;46.51;99829.81;5100676;28;20146;-62
2023/05/29 11:10:41;;;;;;;12.82;5.65;;;;;;;23.27;47.19;99821.78;5092328;28;20055;-62
2023/05/29 11:13:08;;;;;;;14.18;5.70;;;;;;;23.57;47.33;99825.66;5099303;28;20059;-62
2023/05/29 11:15:35;;;;;;;11.82;5.50;;;;;;;23.00;47.45;99816.13;5098216;28;20040;-62
2023/05/29 11:18:07;;;;;;;15.75;5.43;;;;;;;23.66;46.61;99813.63;5102781;28;20138;-62
2023/05/29 11:20:39;;;;;;;13.10;5.40;;;;;;;24.13;45.84;99804.94;5102221;28;20075;-62
2023/05/29 11:23:08;;;;;;;12.93;5.07;;;;;;;23.69;46.69;99807.50;5096272;28;20516;-62
2023/05/29 11:25:36;;;;;;;15.05;5.55;;;;;;;23.84;46.74;99806.31;5093556;28;20047;-62
2023/05/29 11:28:08;;;;;;;19.50;5.45;;;;;;;24.14;45.80;99800.25;5093481;28;20036;-62
2023/05/29 11:30:43;;;;;;;12.40;4.60;;;;;;;24.02;45.99;99800.88;5101028;28;20128;-62
2023/05/29 11:33:10;;;;;;;13.15;5.15;;;;;;;24.02;46.38;99803.63;5098420;28;20039;-62
2023/05/29 11:35:38;;;;;;;14.38;5.00;;;;;;;23.33;47.52;99793.97;5098692;28;20757;-62